sensor_id;sensor_type;location;lat;lon;timestamp;P1;durP1;ratioP1;P2;durP2;ratioP2
10491;SDS011;5293;51.464;-2.566;2022-11-20T00:02:25;10.63;;;4.77;;
10491;SDS011;5293;51.464;-2.566;2022-11-20T00:04:51;10.17;;;4.70;;
10491;SDS011;5293;51.464;-2.566;2022-11-20T00:07:16;6.30;;;4.23;;
10491;SDS011;5293;51.464;-2.566;2022-11-20T00:09:42;8.87;;;4.43;;
10491;SDS011;5293;51.464;-2.566;2022-11-20T00:12:07;7.27;;;5.10;;
10491;SDS011;5293;51.464;-2.566;2022-11-20T00:14:33;12.03;;;5.10;;
10491;SDS011;5293;51.464;-2.566;2022-11-20T00:16:59;6.83;;;4.57;;
10491;SDS011;5293;51.464;-2.566;2022-11-20T00:19:25;11.33;;;4.87;;
10491;SDS011;5293;51.464;-2.566;2022-11-20T00:21:50;9.00;;;4.73;;
10491;SDS011;5293;51.464;-2.566;2022-11-20T00:24:18;9.43;;;4.73;;
10491;SDS011;5293;51.464;-2.566;2022-11-20T00:26:44;10.20;;;4.60;;
10491;SDS011;5293;51.464;-2.566;2022-11-20T00:29:10;8.60;;;4.97;;
10491;SDS011;5293;51.464;-2.566;2022-11-20T00:31:35;7.60;;;4.70;;
10491;SDS011;5293;51.464;-2.566;2022-11-20T00:34:01;9.53;;;4.60;;
10491;SDS011;5293;51.464;-2.566;2022-11-20T00:36:27;5.10;;;4.27;;
10491;SDS011;5293;51.464;-2.566;2022-11-20T00:38:54;7.23;;;4.23;;
10491;SDS011;5293;51.464;-2.566;2022-11-20T00:41:22;8.93;;;4.40;;
10491;SDS011;5293;51.464;-2.566;2022-11-20T00:43:48;5.17;;;4.27;;
10491;SDS011;5293;51.464;-2.566;2022-11-20T00:46:17;12.20;;;4.70;;
10491;SDS011;5293;51.464;-2.566;2022-11-20T00:48:44;10.50;;;5.00;;
10491;SDS011;5293;51.464;-2.566;2022-11-20T00:51:11;4.97;;;4.20;;
10491;SDS011;5293;51.464;-2.566;2022-11-20T00:53:47;9.40;;;5.07;;
10491;SDS011;5293;51.464;-2.566;2022-11-20T00:56:13;10.57;;;5.07;;
10491;SDS011;5293;51.464;-2.566;2022-11-20T00:58:41;10.97;;;5.70;;
10491;SDS011;5293;51.464;-2.566;2022-11-20T01:01:21;7.63;;;4.37;;
10491;SDS011;5293;51.464;-2.566;2022-11-20T01:03:52;12.50;;;5.33;;
10491;SDS011;5293;51.464;-2.566;2022-11-20T01:06:29;9.77;;;5.40;;
10491;SDS011;5293;51.464;-2.566;2022-11-20T01:08:56;11.83;;;5.00;;
10491;SDS011;5293;51.464;-2.566;2022-11-20T01:11:24;10.50;;;5.03;;
10491;SDS011;5293;51.464;-2.566;2022-11-20T01:13:52;11.10;;;5.10;;
10491;SDS011;5293;51.464;-2.566;2022-11-20T01:16:23;10.37;;;5.77;;
10491;SDS011;5293;51.464;-2.566;2022-11-20T01:18:56;40.67;;;19.47;;
10491;SDS011;5293;51.464;-2.566;2022-11-20T01:21:26;12.10;;;6.23;;
10491;SDS011;5293;51.464;-2.566;2022-11-20T01:23:56;10.33;;;5.53;;
10491;SDS011;5293;51.464;-2.566;2022-11-20T01:26:23;11.27;;;5.47;;
10491;SDS011;5293;51.464;-2.566;2022-11-20T01:28:53;7.97;;;4.97;;
10491;SDS011;5293;51.464;-2.566;2022-11-20T01:31:24;12.63;;;6.20;;
10491;SDS011;5293;51.464;-2.566;2022-11-20T01:33:52;11.07;;;5.93;;
10491;SDS011;5293;51.464;-2.566;2022-11-20T01:36:19;12.07;;;6.20;;
10491;SDS011;5293;51.464;-2.566;2022-11-20T01:38:47;10.57;;;5.70;;
10491;SDS011;5293;51.464;-2.566;2022-11-20T01:41:14;8.57;;;5.60;;
10491;SDS011;5293;51.464;-2.566;2022-11-20T01:44:01;9.33;;;5.20;;
10491;SDS011;5293;51.464;-2.566;2022-11-20T01:46:27;10.70;;;5.60;;
10491;SDS011;5293;51.464;-2.566;2022-11-20T01:49:03;11.27;;;5.57;;
10491;SDS011;5293;51.464;-2.566;2022-11-20T01:51:39;8.10;;;5.50;;
10491;SDS011;5293;51.464;-2.566;2022-11-20T01:54:17;8.93;;;6.17;;
10491;SDS011;5293;51.464;-2.566;2022-11-20T01:56:47;9.03;;;5.20;;
10491;SDS011;5293;51.464;-2.566;2022-11-20T01:59:16;8.93;;;4.97;;
10491;SDS011;5293;51.464;-2.566;2022-11-20T02:01:44;6.23;;;4.97;;
10491;SDS011;5293;51.464;-2.566;2022-11-20T02:04:10;7.47;;;4.97;;
10491;SDS011;5293;51.464;-2.566;2022-11-20T02:06:42;9.63;;;5.50;;
10491;SDS011;5293;51.464;-2.566;2022-11-20T02:09:15;6.93;;;4.80;;
10491;SDS011;5293;51.464;-2.566;2022-11-20T02:11:41;9.53;;;5.70;;
10491;SDS011;5293;51.464;-2.566;2022-11-20T02:14:06;10.43;;;5.83;;
10491;SDS011;5293;51.464;-2.566;2022-11-20T02:16:35;10.67;;;6.60;;
10491;SDS011;5293;51.464;-2.566;2022-11-20T02:19:04;7.90;;;5.47;;
10491;SDS011;5293;51.464;-2.566;2022-11-20T02:22:09;6.20;;;5.53;;
10491;SDS011;5293;51.464;-2.566;2022-11-20T02:24:35;10.53;;;5.33;;
10491;SDS011;5293;51.464;-2.566;2022-11-20T02:27:05;6.53;;;5.20;;
10491;SDS011;5293;51.464;-2.566;2022-11-20T02:29:36;5.97;;;4.40;;
10491;SDS011;5293;51.464;-2.566;2022-11-20T02:32:22;7.40;;;4.63;;
10491;SDS011;5293;51.464;-2.566;2022-11-20T02:34:50;5.70;;;4.37;;
10491;SDS011;5293;51.464;-2.566;2022-11-20T02:37:16;5.63;;;4.47;;
10491;SDS011;5293;51.464;-2.566;2022-11-20T02:39:43;6.53;;;4.57;;
10491;SDS011;5293;51.464;-2.566;2022-11-20T02:42:11;6.73;;;4.47;;
10491;SDS011;5293;51.464;-2.566;2022-11-20T02:44:36;5.63;;;4.50;;
10491;SDS011;5293;51.464;-2.566;2022-11-20T02:47:02;6.30;;;5.10;;
10491;SDS011;5293;51.464;-2.566;2022-11-20T02:49:28;8.37;;;5.60;;
10491;SDS011;5293;51.464;-2.566;2022-11-20T02:51:53;8.50;;;5.03;;
10491;SDS011;5293;51.464;-2.566;2022-11-20T02:54:19;6.57;;;4.87;;
10491;SDS011;5293;51.464;-2.566;2022-11-20T02:56:45;6.23;;;4.90;;
10491;SDS011;5293;51.464;-2.566;2022-11-20T02:59:10;7.67;;;4.50;;
10491;SDS011;5293;51.464;-2.566;2022-11-20T03:01:36;6.37;;;4.47;;
10491;SDS011;5293;51.464;-2.566;2022-11-20T03:04:02;7.03;;;4.87;;
10491;SDS011;5293;51.464;-2.566;2022-11-20T03:06:28;5.83;;;4.40;;
10491;SDS011;5293;51.464;-2.566;2022-11-20T03:08:53;7.20;;;4.97;;
10491;SDS011;5293;51.464;-2.566;2022-11-20T03:11:19;6.20;;;4.57;;
10491;SDS011;5293;51.464;-2.566;2022-11-20T03:13:45;6.67;;;5.20;;
10491;SDS011;5293;51.464;-2.566;2022-11-20T03:16:15;9.63;;;6.70;;
10491;SDS011;5293;51.464;-2.566;2022-11-20T03:18:43;8.67;;;6.83;;
10491;SDS011;5293;51.464;-2.566;2022-11-20T03:21:09;6.13;;;4.73;;
10491;SDS011;5293;51.464;-2.566;2022-11-20T03:23:35;4.07;;;3.40;;
10491;SDS011;5293;51.464;-2.566;2022-11-20T03:28:38;3.23;;;2.77;;
10491;SDS011;5293;51.464;-2.566;2022-11-20T03:31:05;4.23;;;2.80;;
10491;SDS011;5293;51.464;-2.566;2022-11-20T03:33:32;4.47;;;3.10;;
10491;SDS011;5293;51.464;-2.566;2022-11-20T03:36:00;3.83;;;2.47;;
10491;SDS011;5293;51.464;-2.566;2022-11-20T03:38:31;2.37;;;2.17;;
10491;SDS011;5293;51.464;-2.566;2022-11-20T03:41:00;3.10;;;2.80;;
10491;SDS011;5293;51.464;-2.566;2022-11-20T03:43:28;2.60;;;2.40;;
10491;SDS011;5293;51.464;-2.566;2022-11-20T03:45:54;2.53;;;2.37;;
10491;SDS011;5293;51.464;-2.566;2022-11-20T03:48:20;2.50;;;2.30;;
10491;SDS011;5293;51.464;-2.566;2022-11-20T03:50:45;2.67;;;2.47;;
10491;SDS011;5293;51.464;-2.566;2022-11-20T03:53:14;2.50;;;2.27;;
10491;SDS011;5293;51.464;-2.566;2022-11-20T03:55:40;2.27;;;2.10;;
10491;SDS011;5293;51.464;-2.566;2022-11-20T03:58:07;2.93;;;2.63;;
10491;SDS011;5293;51.464;-2.566;2022-11-20T04:00:33;5.13;;;2.90;;
10491;SDS011;5293;51.464;-2.566;2022-11-20T04:02:59;4.03;;;2.67;;
10491;SDS011;5293;51.464;-2.566;2022-11-20T04:05:26;1.83;;;1.73;;
10491;SDS011;5293;51.464;-2.566;2022-11-20T04:07:52;1.80;;;1.70;;
10491;SDS011;5293;51.464;-2.566;2022-11-20T04:10:18;2.23;;;1.60;;
10491;SDS011;5293;51.464;-2.566;2022-11-20T04:12:43;1.73;;;1.60;;
10491;SDS011;5293;51.464;-2.566;2022-11-20T04:15:09;2.07;;;1.40;;
10491;SDS011;5293;51.464;-2.566;2022-11-20T04:17:35;3.30;;;2.27;;
10491;SDS011;5293;51.464;-2.566;2022-11-20T04:20:01;4.67;;;3.27;;
10491;SDS011;5293;51.464;-2.566;2022-11-20T04:22:27;3.03;;;2.13;;
10491;SDS011;5293;51.464;-2.566;2022-11-20T04:24:52;2.80;;;2.47;;
10491;SDS011;5293;51.464;-2.566;2022-11-20T04:27:18;2.80;;;2.03;;
10491;SDS011;5293;51.464;-2.566;2022-11-20T04:29:44;4.00;;;1.93;;
10491;SDS011;5293;51.464;-2.566;2022-11-20T04:32:09;2.20;;;1.80;;
10491;SDS011;5293;51.464;-2.566;2022-11-20T04:34:35;2.93;;;1.63;;
10491;SDS011;5293;51.464;-2.566;2022-11-20T04:37:01;2.27;;;1.50;;
10491;SDS011;5293;51.464;-2.566;2022-11-20T04:39:26;5.80;;;2.27;;
10491;SDS011;5293;51.464;-2.566;2022-11-20T04:41:52;2.23;;;2.03;;
10491;SDS011;5293;51.464;-2.566;2022-11-20T04:44:37;2.23;;;1.73;;
10491;SDS011;5293;51.464;-2.566;2022-11-20T04:47:03;3.30;;;2.10;;
10491;SDS011;5293;51.464;-2.566;2022-11-20T04:49:29;1.57;;;1.47;;
10491;SDS011;5293;51.464;-2.566;2022-11-20T04:51:56;2.43;;;1.50;;
10491;SDS011;5293;51.464;-2.566;2022-11-20T04:54:22;0.93;;;0.90;;
10491;SDS011;5293;51.464;-2.566;2022-11-20T04:56:48;4.43;;;1.50;;
10491;SDS011;5293;51.464;-2.566;2022-11-20T04:59:14;1.33;;;1.00;;
10491;SDS011;5293;51.464;-2.566;2022-11-20T05:01:40;2.67;;;1.30;;
10491;SDS011;5293;51.464;-2.566;2022-11-20T05:04:05;2.33;;;1.70;;
10491;SDS011;5293;51.464;-2.566;2022-11-20T05:06:31;4.43;;;1.40;;
10491;SDS011;5293;51.464;-2.566;2022-11-20T05:08:57;2.10;;;1.27;;
10491;SDS011;5293;51.464;-2.566;2022-11-20T05:11:23;4.40;;;2.03;;
10491;SDS011;5293;51.464;-2.566;2022-11-20T05:13:50;3.00;;;1.40;;
10491;SDS011;5293;51.464;-2.566;2022-11-20T05:16:17;4.40;;;1.60;;
10491;SDS011;5293;51.464;-2.566;2022-11-20T05:18:45;4.80;;;1.50;;
10491;SDS011;5293;51.464;-2.566;2022-11-20T05:21:11;3.77;;;1.50;;
10491;SDS011;5293;51.464;-2.566;2022-11-20T05:23:37;6.93;;;1.77;;
10491;SDS011;5293;51.464;-2.566;2022-11-20T05:26:03;3.53;;;1.60;;
10491;SDS011;5293;51.464;-2.566;2022-11-20T05:28:30;4.37;;;1.47;;
10491;SDS011;5293;51.464;-2.566;2022-11-20T05:31:03;3.93;;;2.00;;
10491;SDS011;5293;51.464;-2.566;2022-11-20T05:33:31;1.70;;;1.60;;
10491;SDS011;5293;51.464;-2.566;2022-11-20T05:36:00;5.47;;;2.20;;
10491;SDS011;5293;51.464;-2.566;2022-11-20T05:38:27;6.03;;;1.97;;
10491;SDS011;5293;51.464;-2.566;2022-11-20T05:40:53;4.67;;;2.00;;
10491;SDS011;5293;51.464;-2.566;2022-11-20T05:43:19;5.03;;;2.13;;
10491;SDS011;5293;51.464;-2.566;2022-11-20T05:45:51;4.53;;;1.83;;
10491;SDS011;5293;51.464;-2.566;2022-11-20T05:48:18;3.23;;;2.10;;
10491;SDS011;5293;51.464;-2.566;2022-11-20T05:50:44;7.97;;;2.27;;
10491;SDS011;5293;51.464;-2.566;2022-11-20T05:53:09;6.07;;;2.20;;
10491;SDS011;5293;51.464;-2.566;2022-11-20T05:55:35;5.23;;;1.80;;
10491;SDS011;5293;51.464;-2.566;2022-11-20T05:58:01;5.93;;;2.07;;
10491;SDS011;5293;51.464;-2.566;2022-11-20T06:00:26;11.37;;;2.47;;
10491;SDS011;5293;51.464;-2.566;2022-11-20T06:02:52;6.93;;;2.90;;
10491;SDS011;5293;51.464;-2.566;2022-11-20T06:05:17;6.53;;;1.83;;
10491;SDS011;5293;51.464;-2.566;2022-11-20T06:07:44;7.27;;;2.13;;
10491;SDS011;5293;51.464;-2.566;2022-11-20T06:10:10;8.73;;;2.17;;
10491;SDS011;5293;51.464;-2.566;2022-11-20T06:12:36;4.60;;;2.37;;
10491;SDS011;5293;51.464;-2.566;2022-11-20T06:15:01;7.93;;;2.07;;
10491;SDS011;5293;51.464;-2.566;2022-11-20T06:17:28;10.53;;;2.67;;
10491;SDS011;5293;51.464;-2.566;2022-11-20T06:19:53;12.43;;;3.10;;
10491;SDS011;5293;51.464;-2.566;2022-11-20T06:22:19;12.13;;;2.53;;
10491;SDS011;5293;51.464;-2.566;2022-11-20T06:24:45;19.50;;;2.90;;
10491;SDS011;5293;51.464;-2.566;2022-11-20T06:27:10;14.00;;;2.87;;
10491;SDS011;5293;51.464;-2.566;2022-11-20T06:29:36;12.90;;;2.50;;
10491;SDS011;5293;51.464;-2.566;2022-11-20T06:32:02;13.50;;;3.07;;
10491;SDS011;5293;51.464;-2.566;2022-11-20T06:34:27;14.70;;;3.73;;
10491;SDS011;5293;51.464;-2.566;2022-11-20T06:36:53;10.40;;;3.27;;
10491;SDS011;5293;51.464;-2.566;2022-11-20T06:39:18;15.00;;;3.40;;
10491;SDS011;5293;51.464;-2.566;2022-11-20T06:41:44;12.30;;;3.57;;
10491;SDS011;5293;51.464;-2.566;2022-11-20T06:44:10;23.03;;;4.67;;
10491;SDS011;5293;51.464;-2.566;2022-11-20T06:46:36;15.73;;;2.90;;
10491;SDS011;5293;51.464;-2.566;2022-11-20T06:49:08;17.70;;;3.10;;
10491;SDS011;5293;51.464;-2.566;2022-11-20T06:51:34;16.60;;;3.77;;
10491;SDS011;5293;51.464;-2.566;2022-11-20T06:53:59;12.57;;;2.27;;
10491;SDS011;5293;51.464;-2.566;2022-11-20T06:56:26;18.70;;;2.90;;
10491;SDS011;5293;51.464;-2.566;2022-11-20T06:58:51;12.57;;;3.07;;
10491;SDS011;5293;51.464;-2.566;2022-11-20T07:01:17;9.87;;;3.27;;
10491;SDS011;5293;51.464;-2.566;2022-11-20T07:03:43;11.03;;;2.63;;
10491;SDS011;5293;51.464;-2.566;2022-11-20T07:06:09;14.70;;;3.13;;
10491;SDS011;5293;51.464;-2.566;2022-11-20T07:08:34;10.57;;;2.93;;
10491;SDS011;5293;51.464;-2.566;2022-11-20T07:11:01;10.37;;;2.83;;
10491;SDS011;5293;51.464;-2.566;2022-11-20T07:13:29;15.87;;;3.43;;
10491;SDS011;5293;51.464;-2.566;2022-11-20T07:15:59;11.73;;;2.73;;
10491;SDS011;5293;51.464;-2.566;2022-11-20T07:18:26;8.23;;;3.23;;
10491;SDS011;5293;51.464;-2.566;2022-11-20T07:20:52;13.50;;;3.90;;
10491;SDS011;5293;51.464;-2.566;2022-11-20T07:23:17;11.70;;;2.93;;
10491;SDS011;5293;51.464;-2.566;2022-11-20T07:25:43;12.57;;;3.60;;
10491;SDS011;5293;51.464;-2.566;2022-11-20T07:28:09;8.20;;;3.33;;
10491;SDS011;5293;51.464;-2.566;2022-11-20T07:30:35;14.03;;;2.90;;
10491;SDS011;5293;51.464;-2.566;2022-11-20T07:33:01;9.57;;;3.30;;
10491;SDS011;5293;51.464;-2.566;2022-11-20T07:35:27;11.40;;;3.40;;
10491;SDS011;5293;51.464;-2.566;2022-11-20T07:37:53;15.30;;;3.43;;
10491;SDS011;5293;51.464;-2.566;2022-11-20T07:40:18;9.57;;;3.17;;
10491;SDS011;5293;51.464;-2.566;2022-11-20T07:42:48;11.07;;;3.73;;
10491;SDS011;5293;51.464;-2.566;2022-11-20T07:45:15;10.03;;;3.20;;
10491;SDS011;5293;51.464;-2.566;2022-11-20T07:47:41;10.37;;;3.73;;
10491;SDS011;5293;51.464;-2.566;2022-11-20T07:50:07;10.80;;;4.27;;
10491;SDS011;5293;51.464;-2.566;2022-11-20T07:52:33;17.17;;;4.23;;
10491;SDS011;5293;51.464;-2.566;2022-11-20T07:54:58;13.40;;;4.10;;
10491;SDS011;5293;51.464;-2.566;2022-11-20T07:57:24;12.30;;;3.80;;
10491;SDS011;5293;51.464;-2.566;2022-11-20T07:59:49;19.90;;;5.20;;
10491;SDS011;5293;51.464;-2.566;2022-11-20T08:02:15;16.43;;;4.50;;
10491;SDS011;5293;51.464;-2.566;2022-11-20T08:04:41;21.93;;;4.47;;
10491;SDS011;5293;51.464;-2.566;2022-11-20T08:07:06;15.77;;;4.20;;
10491;SDS011;5293;51.464;-2.566;2022-11-20T08:09:32;15.03;;;3.83;;
10491;SDS011;5293;51.464;-2.566;2022-11-20T08:11:57;12.33;;;3.77;;
10491;SDS011;5293;51.464;-2.566;2022-11-20T08:14:41;16.40;;;3.47;;
10491;SDS011;5293;51.464;-2.566;2022-11-20T08:17:07;18.80;;;4.27;;
10491;SDS011;5293;51.464;-2.566;2022-11-20T08:19:33;13.33;;;4.20;;
10491;SDS011;5293;51.464;-2.566;2022-11-20T08:21:58;11.13;;;3.90;;
10491;SDS011;5293;51.464;-2.566;2022-11-20T08:24:24;12.93;;;4.33;;
10491;SDS011;5293;51.464;-2.566;2022-11-20T08:26:51;15.07;;;4.00;;
10491;SDS011;5293;51.464;-2.566;2022-11-20T08:29:17;10.50;;;3.70;;
10491;SDS011;5293;51.464;-2.566;2022-11-20T08:31:43;16.23;;;4.23;;
10491;SDS011;5293;51.464;-2.566;2022-11-20T08:34:09;19.03;;;4.60;;
10491;SDS011;5293;51.464;-2.566;2022-11-20T08:36:34;15.70;;;5.03;;
10491;SDS011;5293;51.464;-2.566;2022-11-20T08:39:01;22.30;;;5.27;;
10491;SDS011;5293;51.464;-2.566;2022-11-20T08:41:27;15.27;;;5.00;;
10491;SDS011;5293;51.464;-2.566;2022-11-20T08:43:59;15.93;;;4.20;;
10491;SDS011;5293;51.464;-2.566;2022-11-20T08:46:36;15.17;;;4.07;;
10491;SDS011;5293;51.464;-2.566;2022-11-20T08:49:04;21.77;;;4.20;;
10491;SDS011;5293;51.464;-2.566;2022-11-20T08:51:31;15.50;;;4.67;;
10491;SDS011;5293;51.464;-2.566;2022-11-20T08:53:57;10.50;;;4.10;;
10491;SDS011;5293;51.464;-2.566;2022-11-20T08:56:23;20.20;;;4.40;;
10491;SDS011;5293;51.464;-2.566;2022-11-20T08:58:49;15.40;;;4.27;;
10491;SDS011;5293;51.464;-2.566;2022-11-20T09:01:19;22.97;;;4.50;;
10491;SDS011;5293;51.464;-2.566;2022-11-20T09:03:45;16.23;;;4.40;;
10491;SDS011;5293;51.464;-2.566;2022-11-20T09:06:11;15.43;;;4.43;;
10491;SDS011;5293;51.464;-2.566;2022-11-20T09:08:37;24.43;;;6.10;;
10491;SDS011;5293;51.464;-2.566;2022-11-20T09:11:03;18.33;;;5.13;;
10491;SDS011;5293;51.464;-2.566;2022-11-20T09:13:30;15.93;;;5.53;;
10491;SDS011;5293;51.464;-2.566;2022-11-20T09:15:57;16.20;;;4.83;;
10491;SDS011;5293;51.464;-2.566;2022-11-20T09:18:27;19.53;;;5.53;;
10491;SDS011;5293;51.464;-2.566;2022-11-20T09:20:57;19.77;;;4.77;;
10491;SDS011;5293;51.464;-2.566;2022-11-20T09:23:23;40.27;;;14.23;;
10491;SDS011;5293;51.464;-2.566;2022-11-20T09:25:50;27.03;;;6.63;;
10491;SDS011;5293;51.464;-2.566;2022-11-20T09:28:15;21.57;;;7.50;;
10491;SDS011;5293;51.464;-2.566;2022-11-20T09:30:43;21.40;;;6.33;;
10491;SDS011;5293;51.464;-2.566;2022-11-20T09:33:09;20.30;;;5.87;;
10491;SDS011;5293;51.464;-2.566;2022-11-20T09:35:35;20.63;;;4.87;;
10491;SDS011;5293;51.464;-2.566;2022-11-20T09:38:04;19.97;;;4.93;;
10491;SDS011;5293;51.464;-2.566;2022-11-20T09:40:31;21.87;;;4.13;;
10491;SDS011;5293;51.464;-2.566;2022-11-20T09:43:03;22.07;;;4.53;;
10491;SDS011;5293;51.464;-2.566;2022-11-20T09:50:43;16.60;;;4.03;;
10491;SDS011;5293;51.464;-2.566;2022-11-20T09:53:19;26.43;;;7.67;;
10491;SDS011;5293;51.464;-2.566;2022-11-20T09:55:46;18.30;;;5.47;;
10491;SDS011;5293;51.464;-2.566;2022-11-20T09:58:25;19.47;;;5.47;;
10491;SDS011;5293;51.464;-2.566;2022-11-20T10:01:09;25.83;;;6.10;;
10491;SDS011;5293;51.464;-2.566;2022-11-20T10:06:32;25.67;;;5.53;;
10491;SDS011;5293;51.464;-2.566;2022-11-20T10:11:42;20.13;;;4.90;;
10491;SDS011;5293;51.464;-2.566;2022-11-20T10:14:20;23.53;;;5.50;;
10491;SDS011;5293;51.464;-2.566;2022-11-20T10:24:52;15.17;;;4.43;;
10491;SDS011;5293;51.464;-2.566;2022-11-20T10:30:19;25.73;;;5.67;;
10491;SDS011;5293;51.464;-2.566;2022-11-20T10:32:59;20.23;;;5.17;;
10491;SDS011;5293;51.464;-2.566;2022-11-20T10:38:21;26.63;;;4.30;;
10491;SDS011;5293;51.464;-2.566;2022-11-20T10:40:52;20.70;;;5.73;;
10491;SDS011;5293;51.464;-2.566;2022-11-20T10:43:44;24.20;;;4.53;;
10491;SDS011;5293;51.464;-2.566;2022-11-20T10:46:15;26.77;;;4.63;;
10491;SDS011;5293;51.464;-2.566;2022-11-20T10:48:43;19.33;;;5.63;;
10491;SDS011;5293;51.464;-2.566;2022-11-20T10:51:30;18.93;;;3.80;;
10491;SDS011;5293;51.464;-2.566;2022-11-20T11:02:29;14.03;;;3.03;;
10491;SDS011;5293;51.464;-2.566;2022-11-20T11:04:59;14.93;;;3.83;;
10491;SDS011;5293;51.464;-2.566;2022-11-20T11:07:38;16.20;;;4.30;;
10491;SDS011;5293;51.464;-2.566;2022-11-20T11:10:13;13.70;;;3.03;;
10491;SDS011;5293;51.464;-2.566;2022-11-20T11:12:43;25.40;;;5.57;;
10491;SDS011;5293;51.464;-2.566;2022-11-20T11:15:24;18.63;;;4.80;;
10491;SDS011;5293;51.464;-2.566;2022-11-20T11:18:03;18.83;;;3.50;;
10491;SDS011;5293;51.464;-2.566;2022-11-20T11:20:29;17.40;;;3.50;;
10491;SDS011;5293;51.464;-2.566;2022-11-20T11:22:57;8.73;;;3.13;;
10491;SDS011;5293;51.464;-2.566;2022-11-20T11:27:50;14.43;;;3.40;;
10491;SDS011;5293;51.464;-2.566;2022-11-20T11:30:18;13.23;;;3.77;;
10491;SDS011;5293;51.464;-2.566;2022-11-20T11:32:45;9.73;;;2.63;;
10491;SDS011;5293;51.464;-2.566;2022-11-20T11:35:45;14.70;;;4.20;;
10491;SDS011;5293;51.464;-2.566;2022-11-20T11:38:15;17.70;;;4.40;;
10491;SDS011;5293;51.464;-2.566;2022-11-20T11:40:44;13.60;;;4.37;;
10491;SDS011;5293;51.464;-2.566;2022-11-20T11:43:21;13.40;;;3.27;;
10491;SDS011;5293;51.464;-2.566;2022-11-20T11:46:30;13.03;;;4.30;;
10491;SDS011;5293;51.464;-2.566;2022-11-20T11:54:24;10.57;;;3.60;;
10491;SDS011;5293;51.464;-2.566;2022-11-20T11:56:58;21.93;;;4.90;;
10491;SDS011;5293;51.464;-2.566;2022-11-20T11:59:33;16.67;;;3.90;;
10491;SDS011;5293;51.464;-2.566;2022-11-20T12:02:25;17.07;;;4.20;;
10491;SDS011;5293;51.464;-2.566;2022-11-20T12:04:54;20.30;;;4.13;;
10491;SDS011;5293;51.464;-2.566;2022-11-20T12:10:01;12.17;;;3.80;;
10491;SDS011;5293;51.464;-2.566;2022-11-20T12:12:30;16.00;;;5.03;;
10491;SDS011;5293;51.464;-2.566;2022-11-20T12:15:01;14.70;;;3.77;;
10491;SDS011;5293;51.464;-2.566;2022-11-20T12:17:29;17.00;;;3.67;;
10491;SDS011;5293;51.464;-2.566;2022-11-20T12:19:54;20.67;;;3.90;;
10491;SDS011;5293;51.464;-2.566;2022-11-20T12:25:01;13.13;;;3.57;;
10491;SDS011;5293;51.464;-2.566;2022-11-20T12:30:45;9.73;;;2.40;;
10491;SDS011;5293;51.464;-2.566;2022-11-20T12:36:44;11.37;;;2.60;;
10491;SDS011;5293;51.464;-2.566;2022-11-20T12:45:34;17.53;;;3.00;;
10491;SDS011;5293;51.464;-2.566;2022-11-20T13:01:51;9.40;;;2.07;;
10491;SDS011;5293;51.464;-2.566;2022-11-20T13:04:47;7.30;;;2.10;;
10491;SDS011;5293;51.464;-2.566;2022-11-20T13:07:34;10.83;;;2.63;;
10491;SDS011;5293;51.464;-2.566;2022-11-20T13:10:01;11.03;;;1.93;;
10491;SDS011;5293;51.464;-2.566;2022-11-20T13:18:01;7.77;;;1.37;;
10491;SDS011;5293;51.464;-2.566;2022-11-20T13:20:29;4.33;;;1.30;;
10491;SDS011;5293;51.464;-2.566;2022-11-20T13:22:56;6.03;;;1.80;;
10491;SDS011;5293;51.464;-2.566;2022-11-20T13:27:53;7.83;;;1.73;;
10491;SDS011;5293;51.464;-2.566;2022-11-20T13:30:20;15.60;;;2.80;;
10491;SDS011;5293;51.464;-2.566;2022-11-20T13:32:54;8.03;;;2.00;;
10491;SDS011;5293;51.464;-2.566;2022-11-20T13:35:37;12.73;;;2.00;;
10491;SDS011;5293;51.464;-2.566;2022-11-20T13:38:10;12.47;;;2.40;;
10491;SDS011;5293;51.464;-2.566;2022-11-20T13:40:38;7.83;;;2.00;;
10491;SDS011;5293;51.464;-2.566;2022-11-20T13:43:21;5.80;;;1.93;;
10491;SDS011;5293;51.464;-2.566;2022-11-20T13:46:21;8.73;;;2.17;;
10491;SDS011;5293;51.464;-2.566;2022-11-20T13:48:43;5.40;;;1.53;;
10491;SDS011;5293;51.464;-2.566;2022-11-20T14:02:16;6.23;;;1.53;;
10491;SDS011;5293;51.464;-2.566;2022-11-20T14:04:45;16.50;;;5.13;;
10491;SDS011;5293;51.464;-2.566;2022-11-20T14:07:13;9.30;;;3.07;;
10491;SDS011;5293;51.464;-2.566;2022-11-20T14:09:48;7.43;;;2.13;;
10491;SDS011;5293;51.464;-2.566;2022-11-20T14:12:19;10.27;;;1.77;;
10491;SDS011;5293;51.464;-2.566;2022-11-20T14:14:53;8.17;;;1.67;;
10491;SDS011;5293;51.464;-2.566;2022-11-20T14:19:54;7.10;;;1.60;;
10491;SDS011;5293;51.464;-2.566;2022-11-20T14:22:24;9.10;;;2.10;;
10491;SDS011;5293;51.464;-2.566;2022-11-20T14:27:52;6.97;;;2.20;;
10491;SDS011;5293;51.464;-2.566;2022-11-20T14:30:26;8.97;;;2.43;;
10491;SDS011;5293;51.464;-2.566;2022-11-20T14:32:54;11.77;;;2.63;;
10491;SDS011;5293;51.464;-2.566;2022-11-20T14:35:24;6.57;;;2.63;;
10491;SDS011;5293;51.464;-2.566;2022-11-20T14:37:51;7.90;;;2.53;;
10491;SDS011;5293;51.464;-2.566;2022-11-20T14:42:48;12.30;;;4.17;;
10491;SDS011;5293;51.464;-2.566;2022-11-20T14:45:14;10.43;;;2.60;;
10491;SDS011;5293;51.464;-2.566;2022-11-20T14:47:41;9.23;;;2.57;;
10491;SDS011;5293;51.464;-2.566;2022-11-20T14:50:40;4.67;;;2.40;;
10491;SDS011;5293;51.464;-2.566;2022-11-20T14:53:00;8.63;;;1.90;;
10491;SDS011;5293;51.464;-2.566;2022-11-20T14:55:33;10.87;;;2.50;;
10491;SDS011;5293;51.464;-2.566;2022-11-20T14:58:04;8.90;;;3.47;;
10491;SDS011;5293;51.464;-2.566;2022-11-20T15:00:32;9.80;;;3.13;;
10491;SDS011;5293;51.464;-2.566;2022-11-20T15:03:00;10.53;;;3.43;;
10491;SDS011;5293;51.464;-2.566;2022-11-20T15:05:37;12.10;;;2.00;;
10491;SDS011;5293;51.464;-2.566;2022-11-20T15:08:10;7.80;;;2.37;;
10491;SDS011;5293;51.464;-2.566;2022-11-20T15:10:37;9.47;;;2.37;;
10491;SDS011;5293;51.464;-2.566;2022-11-20T15:13:10;9.43;;;2.43;;
10491;SDS011;5293;51.464;-2.566;2022-11-20T15:18:18;12.73;;;2.40;;
10491;SDS011;5293;51.464;-2.566;2022-11-20T15:20:46;6.73;;;2.10;;
10491;SDS011;5293;51.464;-2.566;2022-11-20T15:23:14;3.97;;;1.53;;
10491;SDS011;5293;51.464;-2.566;2022-11-20T15:25:42;3.87;;;1.33;;
10491;SDS011;5293;51.464;-2.566;2022-11-20T15:28:13;7.47;;;1.20;;
10491;SDS011;5293;51.464;-2.566;2022-11-20T15:30:43;3.77;;;1.60;;
10491;SDS011;5293;51.464;-2.566;2022-11-20T15:33:10;3.80;;;1.57;;
10491;SDS011;5293;51.464;-2.566;2022-11-20T15:35:36;4.00;;;1.40;;
10491;SDS011;5293;51.464;-2.566;2022-11-20T15:38:01;2.80;;;1.17;;
10491;SDS011;5293;51.464;-2.566;2022-11-20T15:40:27;3.90;;;1.43;;
10491;SDS011;5293;51.464;-2.566;2022-11-20T15:42:53;5.30;;;1.80;;
10491;SDS011;5293;51.464;-2.566;2022-11-20T15:45:28;3.97;;;1.60;;
10491;SDS011;5293;51.464;-2.566;2022-11-20T15:48:15;4.83;;;1.50;;
10491;SDS011;5293;51.464;-2.566;2022-11-20T15:53:18;4.93;;;1.50;;
10491;SDS011;5293;51.464;-2.566;2022-11-20T15:55:44;6.70;;;1.33;;
10491;SDS011;5293;51.464;-2.566;2022-11-20T15:58:09;4.60;;;1.50;;
10491;SDS011;5293;51.464;-2.566;2022-11-20T16:00:35;10.43;;;1.70;;
10491;SDS011;5293;51.464;-2.566;2022-11-20T16:03:02;5.07;;;1.77;;
10491;SDS011;5293;51.464;-2.566;2022-11-20T16:05:28;5.53;;;1.90;;
10491;SDS011;5293;51.464;-2.566;2022-11-20T16:07:54;6.37;;;2.13;;
10491;SDS011;5293;51.464;-2.566;2022-11-20T16:10:20;6.00;;;1.43;;
10491;SDS011;5293;51.464;-2.566;2022-11-20T16:12:46;4.47;;;1.50;;
10491;SDS011;5293;51.464;-2.566;2022-11-20T16:15:30;8.47;;;2.10;;
10491;SDS011;5293;51.464;-2.566;2022-11-20T16:18:12;8.80;;;2.13;;
10491;SDS011;5293;51.464;-2.566;2022-11-20T16:20:40;6.47;;;1.90;;
10491;SDS011;5293;51.464;-2.566;2022-11-20T16:23:06;4.37;;;1.80;;
10491;SDS011;5293;51.464;-2.566;2022-11-20T16:25:32;3.47;;;1.63;;
10491;SDS011;5293;51.464;-2.566;2022-11-20T16:27:58;4.53;;;1.40;;
10491;SDS011;5293;51.464;-2.566;2022-11-20T16:30:24;6.23;;;1.33;;
10491;SDS011;5293;51.464;-2.566;2022-11-20T16:32:49;2.60;;;1.40;;
10491;SDS011;5293;51.464;-2.566;2022-11-20T16:35:15;3.77;;;1.63;;
10491;SDS011;5293;51.464;-2.566;2022-11-20T16:37:41;2.77;;;1.20;;
10491;SDS011;5293;51.464;-2.566;2022-11-20T16:40:08;4.67;;;1.60;;